RS-0013 weather

Vršački Ritovi Airstrip
South Banat, Serbia

Public forecast

Using degrees Celsius for public forecast. Weather courtesy of forecast.io.

METAR (pilot weather report)

Closest report is Vršac International Airport, 5.3 nm (9.9 km) E. Retrieved 2019/06/20 00:30 UTC (0 seconds ago):

LYVR 200030Z 14011KT 100V170 9999 FEW030 24/16 Q1011 NOSIG

TAF (pilot weather forecast)

Forecast is more than 12 hours old.

Closest forecast is Vršac International Airport, 5.3 nm (9.9 km) E. Retrieved 2019/06/19 00:00 UTC (1 day ago):

TAF LYVR 192300Z 2000/2024 15008KT CAVOK TX29/2014Z TN22/2003Z TEMPO 2000/2008 13015G25KT PROB30 TEMPO 2012/2017 4000 TSRA SCT030CB SCT040